Time;durP1;ratioP1;P1;durP2;ratioP2;P2;SDS_P1;SDS_P2;PMS_P1;PMS_P2;Temp;Humidity;BMP_temperature;BMP_pressure;BME280_temperature;BME280_humidity;BME280_pressure;Samples;Min_cycle;Max_cycle;Signal;HPM_P1;HPM_P2
2022/06/29 00:02:15;;;;;;;36.35;28.30;;;18.10;99.90;;;;;;5193433;28;20601;-73
2022/06/29 00:04:48;;;;;;;31.87;25.20;;;18.10;99.90;;;;;;5181128;28;20061;-74
2022/06/29 00:07:21;;;;;;;31.35;25.92;;;18.10;99.90;;;;;;5188349;28;20312;-74
2022/06/29 00:09:54;;;;;;;31.43;25.73;;;18.10;99.90;;;;;;5171358;28;20038;-73
2022/06/29 00:12:26;;;;;;;30.20;25.73;;;18.10;99.90;;;;;;5177469;28;20297;-73
2022/06/29 00:15:02;;;;;;;30.30;25.85;;;18.10;99.90;;;;;;5176311;28;20524;-75
2022/06/29 00:17:35;;;;;;;34.75;26.42;;;18.10;99.90;;;;;;5191468;28;20041;-73
2022/06/29 00:20:12;;;;;;;44.83;32.05;;;18.10;99.90;;;;;;5190006;28;20042;-74
2022/06/29 00:22:45;;;;;;;29.75;24.40;;;18.10;99.90;;;;;;5170741;28;20048;-74
2022/06/29 00:25:18;;;;;;;30.13;23.75;;;18.10;99.90;;;;;;5185714;28;20048;-74
2022/06/29 00:27:51;;;;;;;27.40;22.45;;;18.20;99.90;;;;;;5170757;28;20056;-73
2022/06/29 00:30:23;;;;;;;30.17;24.15;;;18.20;99.90;;;;;;5187462;28;20133;-74
2022/06/29 00:32:55;;;;;;;33.85;26.33;;;18.20;99.90;;;;;;5171938;28;20049;-74
2022/06/29 00:35:29;;;;;;;31.30;24.75;;;18.20;99.90;;;;;;5180207;28;20516;-72
2022/06/29 00:38:01;;;;;;;31.35;24.92;;;18.10;99.90;;;;;;5180735;28;20065;-73
2022/06/29 00:40:34;;;;;;;27.58;24.02;;;18.10;99.90;;;;;;5185183;28;20469;-74
2022/06/29 00:43:07;;;;;;;26.77;22.70;;;18.10;99.90;;;;;;5183203;28;20045;-73
2022/06/29 00:45:39;;;;;;;42.58;27.45;;;18.20;99.90;;;;;;5154216;28;20048;-74
2022/06/29 00:48:12;;;;;;;33.80;23.77;;;18.10;99.90;;;;;;5189083;28;20064;-74
2022/06/29 00:50:49;;;;;;;28.75;23.52;;;18.10;99.90;;;;;;5184766;28;20060;-73
2022/06/29 00:53:23;;;;;;;33.55;25.40;;;18.10;99.90;;;;;;5184745;28;20549;-74
2022/06/29 00:55:57;;;;;;;30.90;25.13;;;18.10;99.90;;;;;;5186463;28;20966;-74
2022/06/29 00:58:31;;;;;;;35.92;27.17;;;18.00;99.90;;;;;;5186529;28;20080;-73
2022/06/29 01:01:04;;;;;;;34.13;25.83;;;18.00;99.90;;;;;;5185876;28;20038;-73
2022/06/29 01:03:37;;;;;;;;;;;18.00;99.90;;;;;;5187148;28;20046;-73
2022/06/29 01:06:11;;;;;;;29.08;23.15;;;18.00;99.90;;;;;;5181048;28;19936;-73
2022/06/29 01:08:43;;;;;;;;;;;18.00;99.90;;;;;;5185188;28;20046;-74
2022/06/29 01:11:15;;;;;;;32.28;23.65;;;18.00;99.90;;;;;;5161810;28;19925;-73
2022/06/29 01:13:48;;;;;;;31.27;24.48;;;18.00;99.90;;;;;;5153335;28;20045;-74
2022/06/29 01:16:21;;;;;;;34.83;25.37;;;18.10;99.90;;;;;;5173619;28;20545;-73
2022/06/29 01:18:53;;;;;;;33.55;23.20;;;18.00;99.90;;;;;;5180081;28;20046;-74
2022/06/29 01:21:28;;;;;;;27.33;21.63;;;18.00;99.90;;;;;;5179913;28;20060;-73
2022/06/29 01:24:01;;;;;;;27.05;21.67;;;18.00;99.90;;;;;;5163159;28;21062;-74
2022/06/29 01:26:33;;;;;;;27.27;22.17;;;18.00;99.90;;;;;;5177916;28;20049;-74
2022/06/29 01:29:06;;;;;;;31.37;24.33;;;18.10;99.90;;;;;;5180790;28;20534;-74
2022/06/29 01:31:38;;;;;;;28.13;21.88;;;18.10;99.90;;;;;;5157384;28;21333;-73
2022/06/29 01:34:11;;;;;;;30.42;23.38;;;18.10;99.90;;;;;;5164629;28;20054;-73
2022/06/29 01:36:43;;;;;;;31.02;23.35;;;18.10;99.90;;;;;;5179180;28;20080;-74
2022/06/29 01:39:16;;;;;;;36.97;23.95;;;18.10;99.90;;;;;;5156601;28;20053;-74
2022/06/29 01:41:48;;;;;;;41.65;27.38;;;18.10;99.90;;;;;;5174825;28;20473;-74
2022/06/29 01:44:21;;;;;;;32.97;25.95;;;18.10;99.90;;;;;;5182797;28;20552;-74
2022/06/29 01:46:54;;;;;;;31.83;24.53;;;18.10;99.90;;;;;;5181526;28;20500;-74
2022/06/29 01:49:28;;;;;;;40.38;25.75;;;18.10;99.90;;;;;;5155429;28;20680;-73
2022/06/29 01:52:00;;;;;;;29.65;23.17;;;18.10;99.90;;;;;;5176592;28;20049;-74
2022/06/29 01:54:32;;;;;;;33.40;24.52;;;18.10;99.90;;;;;;5175477;28;20069;-74
2022/06/29 01:57:05;;;;;;;29.88;21.52;;;18.10;99.90;;;;;;5173665;28;20045;-73
2022/06/29 01:59:37;;;;;;;29.55;23.70;;;18.20;99.90;;;;;;5174534;28;20054;-72
2022/06/29 02:02:10;;;;;;;31.05;23.83;;;;;;;;;;5176819;28;20049;-74
2022/06/29 02:04:43;;;;;;;36.93;24.27;;;18.10;99.90;;;;;;5167854;28;20505;-73
2022/06/29 02:07:15;;;;;;;32.90;22.60;;;18.20;99.90;;;;;;5177927;28;20308;-73
2022/06/29 02:09:48;;;;;;;41.75;26.33;;;18.20;99.90;;;;;;5174926;28;20060;-74
2022/06/29 02:12:20;;;;;;;35.05;24.52;;;18.30;99.90;;;;;;5171090;28;20728;-74
2022/06/29 02:14:54;;;;;;;32.00;24.27;;;;;;;;;;5162596;28;20597;-74
2022/06/29 02:17:26;;;;;;;31.70;22.52;;;;;;;;;;5180483;28;20465;-74
2022/06/29 02:19:59;;;;;;;28.53;21.07;;;;;;;;;;5184418;28;20578;-73
2022/06/29 02:22:32;;;;;;;32.10;23.73;;;;;;;;;;5182418;28;20050;-73
2022/06/29 02:25:05;;;;;;;39.63;26.95;;;;;;;;;;5159091;28;21625;-74
2022/06/29 02:27:41;;;;;;;32.17;23.42;;;;;;;;;;5180439;28;20665;-73
2022/06/29 02:30:14;;;;;;;26.55;20.67;;;;;;;;;;5156876;28;20061;-74
2022/06/29 02:35:39;;;;;;;33.45;24.90;;;;;;;;;;5164055;28;19925;-73
2022/06/29 02:38:12;;;;;;;41.13;25.83;;;;;;;;;;5142247;28;20056;-74
2022/06/29 02:40:44;;;;;;;39.03;25.37;;;17.90;99.90;;;;;;5172755;28;20046;-74
2022/06/29 02:43:16;;;;;;;37.47;24.75;;;17.90;99.90;;;;;;5175710;28;20046;-73
2022/06/29 02:45:49;;;;;;;37.00;23.30;;;17.80;99.90;;;;;;5141279;28;20045;-74
2022/06/29 02:48:22;;;;;;;34.70;23.17;;;17.80;99.90;;;;;;5156659;28;20050;-74
2022/06/29 02:50:54;;;;;;;29.42;20.45;;;17.90;99.90;;;;;;5161981;28;20060;-73
2022/06/29 02:53:30;;;;;;;32.25;22.27;;;17.90;99.90;;;;;;5139158;28;20065;-74
2022/06/29 02:56:03;;;;;;;38.80;24.60;;;17.90;99.90;;;;;;5166977;28;20049;-73
2022/06/29 02:58:36;;;;;;;23.55;19.80;;;17.90;99.90;;;;;;5142257;28;20038;-73
2022/06/29 03:01:08;;;;;;;38.42;23.98;;;17.80;99.90;;;;;;5169511;28;20053;-73
2022/06/29 03:03:41;;;;;;;30.50;22.48;;;17.80;99.90;;;;;;5182888;28;20042;-73
2022/06/29 03:06:13;;;;;;;30.45;21.80;;;17.80;99.90;;;;;;5172496;28;20057;-73
2022/06/29 03:08:46;;;;;;;42.20;26.65;;;17.80;99.90;;;;;;5184906;28;20075;-74
2022/06/29 03:11:18;;;;;;;26.92;21.50;;;17.80;99.90;;;;;;5171493;28;20049;-73
2022/06/29 03:13:51;;;;;;;26.60;21.25;;;17.80;99.90;;;;;;5185114;28;20064;-73
2022/06/29 03:16:23;;;;;;;37.92;24.42;;;17.90;99.90;;;;;;5171412;28;20050;-73
2022/06/29 03:18:56;;;;;;;29.50;22.38;;;;;;;;;;5185248;28;20049;-73
2022/06/29 03:21:29;;;;;;;41.63;26.27;;;18.00;99.90;;;;;;5150695;28;20056;-73
2022/06/29 03:24:03;;;;;;;50.85;30.33;;;18.00;99.90;;;;;;5175134;28;20041;-73
2022/06/29 03:26:36;;;;;;;44.90;28.05;;;;;;;;;;5176218;28;20042;-74
2022/06/29 03:29:09;;;;;;;29.48;22.00;;;;;;;;;;5158074;28;20050;-73
2022/06/29 03:31:42;;;;;;;36.17;22.07;;;;;;;;;;5166138;28;20052;-74
2022/06/29 03:34:15;;;;;;;33.97;23.53;;;;;;;;;;5183439;28;20677;-73
2022/06/29 03:36:47;;;;;;;32.83;22.77;;;18.10;99.90;;;;;;5180750;28;20049;-73
2022/06/29 03:39:19;;;;;;;34.20;23.38;;;18.00;99.90;;;;;;5184042;28;20421;-73
2022/06/29 03:41:52;;;;;;;48.08;28.20;;;17.90;99.90;;;;;;5172561;28;20060;-74
2022/06/29 03:44:24;;;;;;;44.50;24.92;;;18.00;99.90;;;;;;5154674;28;20057;-74
2022/06/29 03:46:57;;;;;;;24.60;19.92;;;17.90;99.90;;;;;;5176660;28;20049;-73
2022/06/29 03:49:29;;;;;;;34.80;22.65;;;17.90;99.90;;;;;;5182503;28;20044;-73
2022/06/29 03:52:03;;;;;;;30.42;21.65;;;18.00;99.90;;;;;;5179354;28;20041;-72
2022/06/29 03:54:35;;;;;;;32.50;22.27;;;18.10;99.90;;;;;;5153935;28;20049;-73
2022/06/29 03:57:08;;;;;;;28.95;21.25;;;18.10;99.90;;;;;;5179736;28;20049;-73
2022/06/29 03:59:40;;;;;;;40.67;25.65;;;18.00;99.90;;;;;;5174956;28;20057;-73
2022/06/29 04:02:13;;;;;;;31.50;22.38;;;18.00;99.90;;;;;;5164581;28;20042;-73
2022/06/29 04:04:46;;;;;;;34.65;23.17;;;18.00;99.90;;;;;;5188576;28;20046;-73
2022/06/29 04:07:18;;;;;;;28.30;21.70;;;18.00;99.90;;;;;;5186017;28;20150;-73
2022/06/29 04:09:59;;;;;;;28.40;21.73;;;18.00;99.90;;;;;;5181136;28;20053;-73
2022/06/29 04:12:34;;;;;;;25.55;20.75;;;18.00;99.90;;;;;;5180215;28;20608;-73
2022/06/29 04:15:07;;;;;;;30.33;20.73;;;17.90;99.90;;;;;;5184335;28;20045;-73
2022/06/29 04:17:40;;;;;;;27.30;19.35;;;17.90;99.90;;;;;;5168578;28;20067;-74
2022/06/29 04:21:05;;;;;;;30.48;20.38;;;18.00;99.90;;;;;;5182259;28;20053;-73
2022/06/29 04:23:06;;;;;;;27.58;18.65;;;18.00;99.90;;;;;;5160157;28;20056;-73
2022/06/29 04:25:38;;;;;;;21.52;13.55;;;17.90;99.90;;;;;;5169205;28;20057;-73
2022/06/29 04:28:17;;;;;;;24.08;18.20;;;17.90;99.90;;;;;;5171006;28;20049;-73
2022/06/29 04:30:50;;;;;;;20.92;15.88;;;17.90;99.90;;;;;;5179040;28;20747;-72
2022/06/29 04:33:22;;;;;;;28.00;19.65;;;17.90;99.90;;;;;;5156257;28;20046;-73
2022/06/29 04:35:55;;;;;;;22.40;16.95;;;17.90;99.90;;;;;;5146119;28;20080;-73
2022/06/29 04:38:27;;;;;;;26.13;18.10;;;17.80;99.90;;;;;;5159010;28;20061;-73
2022/06/29 04:41:00;;;;;;;26.52;17.83;;;17.80;99.90;;;;;;5175309;28;20049;-74
2022/06/29 04:43:32;;;;;;;22.83;16.87;;;17.80;99.90;;;;;;5190629;28;20842;-74
2022/06/29 04:46:20;;;;;;;20.27;16.02;;;17.80;99.90;;;;;;5189264;28;20058;-74
2022/06/29 04:48:59;;;;;;;22.48;18.08;;;17.80;99.90;;;;;;5181071;28;20056;-73
2022/06/29 04:51:33;;;;;;;30.23;21.45;;;17.90;99.90;;;;;;5173406;28;20048;-74
2022/06/29 04:54:05;;;;;;;;;;;17.80;99.90;;;;;;5174351;28;20421;-73
2022/06/29 04:56:38;;;;;;;30.85;18.92;;;17.80;99.90;;;;;;5166435;28;19925;-73
2022/06/29 04:59:10;;;;;;;20.95;15.85;;;17.80;99.90;;;;;;5169947;28;20053;-73
2022/06/29 05:01:43;;;;;;;23.67;16.63;;;17.80;99.90;;;;;;5180553;28;20049;-73
2022/06/29 05:04:16;;;;;;;24.80;16.53;;;17.90;99.90;;;;;;5172468;28;20061;-74
2022/06/29 05:06:49;;;;;;;21.40;15.30;;;18.00;99.90;;;;;;5182862;28;20296;-73
2022/06/29 05:09:21;;;;;;;25.83;18.00;;;18.00;99.90;;;;;;5169964;28;20060;-72
2022/06/29 05:11:54;;;;;;;19.33;16.35;;;18.00;99.90;;;;;;5181433;28;20295;-73
2022/06/29 05:14:27;;;;;;;22.20;16.33;;;18.00;99.90;;;;;;5167480;28;20512;-73
2022/06/29 05:16:59;;;;;;;25.58;16.15;;;18.00;99.90;;;;;;5141514;28;20046;-73
2022/06/29 05:19:32;;;;;;;19.60;15.50;;;18.00;99.90;;;;;;5164331;28;20045;-74
2022/06/29 05:22:04;;;;;;;21.30;16.15;;;18.10;99.90;;;;;;5170119;28;20049;-73
2022/06/29 05:24:36;;;;;;;22.35;15.50;;;18.00;99.90;;;;;;5151944;28;20441;-73
2022/06/29 05:27:09;;;;;;;25.73;18.90;;;18.00;99.90;;;;;;5153852;28;20049;-73
2022/06/29 05:29:42;;;;;;;26.83;18.90;;;17.90;99.90;;;;;;5139306;28;20049;-74
2022/06/29 05:32:14;;;;;;;27.40;19.13;;;17.90;99.90;;;;;;5180040;28;20065;-74
2022/06/29 05:34:47;;;;;;;26.65;19.52;;;17.90;99.90;;;;;;5173529;28;20064;-73
2022/06/29 05:37:20;;;;;;;23.17;18.60;;;17.90;99.90;;;;;;5160005;28;20053;-73
2022/06/29 05:39:52;;;;;;;26.17;18.73;;;18.00;99.90;;;;;;5163720;28;20050;-73
2022/06/29 05:42:25;;;;;;;22.58;19.67;;;18.00;99.90;;;;;;5165358;28;20046;-74
2022/06/29 05:44:57;;;;;;;23.13;17.92;;;18.00;99.90;;;;;;5177255;28;20543;-73
2022/06/29 05:47:30;;;;;;;24.42;17.95;;;18.10;99.90;;;;;;5181747;28;20425;-74
2022/06/29 05:50:02;;;;;;;23.52;18.60;;;18.20;99.90;;;;;;5182480;28;20728;-72
2022/06/29 05:52:38;;;;;;;22.65;18.38;;;18.30;99.90;;;;;;5165413;28;20577;-73
2022/06/29 05:55:10;;;;;;;22.58;18.35;;;18.40;99.90;;;;;;5162496;28;20049;-73
2022/06/29 05:57:43;;;;;;;24.77;18.65;;;18.40;99.90;;;;;;5180248;28;20068;-73
2022/06/29 06:00:16;;;;;;;24.27;19.85;;;18.40;99.90;;;;;;5167596;28;20837;-73
2022/06/29 06:02:55;;;;;;;21.50;18.38;;;18.60;99.90;;;;;;5179388;28;20781;-73
2022/06/29 06:05:28;;;;;;;22.98;19.27;;;18.70;99.90;;;;;;5175157;28;20723;-73
2022/06/29 06:08:00;;;;;;;22.55;18.52;;;18.80;99.90;;;;;;5183724;28;20053;-73
2022/06/29 06:10:33;;;;;;;24.13;19.10;;;18.80;99.90;;;;;;5162798;28;20045;-73
2022/06/29 06:13:05;;;;;;;25.08;21.05;;;18.80;99.90;;;;;;5172813;28;20061;-73
2022/06/29 06:15:38;;;;;;;24.57;19.87;;;18.80;99.90;;;;;;5172652;28;20592;-73
2022/06/29 06:18:11;;;;;;;23.25;19.02;;;18.90;99.90;;;;;;5156209;28;20058;-74
2022/06/29 06:20:43;;;;;;;23.55;18.25;;;18.90;99.90;;;;;;5170563;28;20416;-73
2022/06/29 06:23:16;;;;;;;27.15;20.13;;;18.90;99.90;;;;;;5176260;28;20049;-72
2022/06/29 06:25:49;;;;;;;26.03;20.00;;;18.90;99.90;;;;;;5176651;28;20042;-74
2022/06/29 06:28:21;;;;;;;24.90;18.45;;;18.90;99.90;;;;;;5177434;28;20675;-73
2022/06/29 06:30:54;;;;;;;26.52;20.38;;;18.90;99.90;;;;;;5161985;28;20469;-72
2022/06/29 06:33:26;;;;;;;27.33;18.70;;;18.90;99.90;;;;;;5162176;28;20050;-74
2022/06/29 06:36:01;;;;;;;23.63;20.48;;;19.00;99.90;;;;;;5175357;28;20052;-74
2022/06/29 06:38:34;;;;;;;29.63;21.13;;;19.00;99.90;;;;;;5184076;28;20062;-74
2022/06/29 06:41:22;;;;;;;25.42;21.65;;;18.90;99.90;;;;;;5179295;28;20445;-72
2022/06/29 06:44:00;;;;;;;25.35;20.50;;;18.90;99.90;;;;;;5159500;28;20041;-74
2022/06/29 06:46:34;;;;;;;28.15;19.65;;;18.90;99.90;;;;;;5170062;28;20056;-73
2022/06/29 06:49:06;;;;;;;26.42;21.58;;;18.90;99.90;;;;;;5165721;28;20716;-74
2022/06/29 06:51:39;;;;;;;27.13;20.38;;;18.90;99.90;;;;;;5178304;28;20048;-73
2022/06/29 06:54:12;;;;;;;24.27;20.37;;;18.90;99.90;;;;;;5169714;28;20571;-74
2022/06/29 06:56:44;;;;;;;24.77;20.48;;;19.00;99.90;;;;;;5174373;28;20413;-74
2022/06/29 06:59:17;;;;;;;24.92;18.88;;;19.00;99.90;;;;;;5180401;28;20046;-74
2022/06/29 07:01:49;;;;;;;24.95;21.10;;;19.00;99.90;;;;;;5184421;28;20040;-74
2022/06/29 07:04:22;;;;;;;25.00;18.52;;;19.10;99.90;;;;;;5184274;28;20515;-74
2022/06/29 07:06:55;;;;;;;24.77;19.63;;;19.10;99.90;;;;;;5172165;28;20037;-73
2022/06/29 07:09:27;;;;;;;24.52;18.38;;;19.10;99.90;;;;;;5167775;28;20056;-73
2022/06/29 07:12:00;;;;;;;19.15;17.13;;;19.20;99.90;;;;;;5186540;28;20544;-73
2022/06/29 07:14:32;;;;;;;22.08;19.67;;;19.20;99.90;;;;;;5182077;28;20421;-72
2022/06/29 07:17:05;;;;;;;23.53;19.03;;;19.20;99.90;;;;;;5166354;28;20703;-73
2022/06/29 07:19:38;;;;;;;23.23;19.52;;;19.20;99.90;;;;;;5161153;28;20057;-74
2022/06/29 07:22:10;;;;;;;22.55;17.88;;;19.20;99.90;;;;;;5169374;28;20044;-74
2022/06/29 07:24:43;;;;;;;25.40;18.77;;;19.30;99.90;;;;;;5176689;28;20053;-74
2022/06/29 07:27:16;;;;;;;20.40;18.30;;;19.40;99.90;;;;;;5167608;28;20796;-74
2022/06/29 07:29:52;;;;;;;19.05;16.05;;;19.40;99.90;;;;;;5181544;28;20704;-74
2022/06/29 07:32:25;;;;;;;24.05;17.48;;;19.40;99.90;;;;;;5170221;28;20050;-73
2022/06/29 07:34:57;;;;;;;21.77;18.30;;;19.40;99.90;;;;;;5169150;28;20428;-74
2022/06/29 07:37:30;;;;;;;23.20;16.92;;;19.40;99.90;;;;;;5189340;28;20046;-74
2022/06/29 07:40:03;;;;;;;22.67;17.73;;;19.50;99.90;;;;;;5173110;28;20053;-74
2022/06/29 07:42:45;;;;;;;25.15;15.40;;;19.60;99.90;;;;;;5160235;28;20050;-74
2022/06/29 07:45:18;;;;;;;18.05;16.15;;;19.70;99.90;;;;;;5185672;28;20103;-74
2022/06/29 07:47:56;;;;;;;20.92;16.75;;;19.80;99.90;;;;;;5180883;28;20050;-73
2022/06/29 07:50:29;;;;;;;20.77;16.30;;;19.90;99.90;;;;;;5163095;28;20065;-74
2022/06/29 07:53:02;;;;;;;19.77;16.02;;;20.10;99.90;;;;;;5181375;28;20477;-74
2022/06/29 07:55:34;;;;;;;22.85;16.10;;;20.20;99.90;;;;;;5167862;28;20045;-74
2022/06/29 07:58:07;;;;;;;19.08;15.98;;;20.30;99.90;;;;;;5187508;28;20053;-73
2022/06/29 08:00:40;;;;;;;17.70;13.73;;;20.40;99.90;;;;;;5184805;28;20859;-73
2022/06/29 08:03:12;;;;;;;17.88;14.68;;;20.50;99.90;;;;;;5161143;28;20053;-73
2022/06/29 08:05:52;;;;;;;17.88;14.70;;;20.50;99.90;;;;;;5184447;28;20072;-74
2022/06/29 08:08:24;;;;;;;20.15;13.38;;;20.50;99.90;;;;;;5156823;28;20425;-74
2022/06/29 08:10:57;;;;;;;17.88;14.10;;;20.60;99.90;;;;;;5184951;28;20052;-74
2022/06/29 08:13:30;;;;;;;20.00;13.47;;;20.70;99.90;;;;;;5185531;28;20045;-73
2022/06/29 08:16:03;;;;;;;22.45;14.82;;;20.70;99.90;;;;;;5187032;28;20303;-74
2022/06/29 08:18:36;;;;;;;15.27;13.43;;;20.50;99.90;;;;;;5186022;28;20049;-74
2022/06/29 08:21:08;;;;;;;14.88;12.65;;;20.60;99.90;;;;;;5153240;28;20503;-75
2022/06/29 08:23:41;;;;;;;16.52;12.93;;;20.70;99.90;;;;;;5172878;28;20472;-74
2022/06/29 08:26:18;;;;;;;18.13;13.65;;;20.80;99.90;;;;;;5185376;28;20052;-74
2022/06/29 08:29:11;;;;;;;15.43;12.25;;;20.80;99.90;;;;;;5181752;28;20067;-74
2022/06/29 08:31:47;;;;;;;14.63;12.65;;;20.80;99.90;;;;;;5187135;28;20049;-74
2022/06/29 08:34:23;;;;;;;14.77;12.68;;;20.90;99.90;;;;;;5171649;28;20092;-74
2022/06/29 08:36:55;;;;;;;13.48;11.68;;;21.00;99.90;;;;;;5187748;28;20053;-74
2022/06/29 08:39:28;;;;;;;14.02;12.55;;;21.00;99.90;;;;;;5187225;28;20041;-73
2022/06/29 08:42:05;;;;;;;19.05;13.18;;;21.00;99.90;;;;;;5182037;28;20052;-75
2022/06/29 08:44:38;;;;;;;17.35;14.00;;;21.10;99.90;;;;;;5172562;28;20045;-74
2022/06/29 08:47:11;;;;;;;;;;;21.10;99.90;;;;;;5169238;28;20133;-74
2022/06/29 08:49:44;;;;;;;16.02;11.70;;;21.20;99.90;;;;;;5189092;28;19925;-74
2022/06/29 08:52:18;;;;;;;;;;;21.30;99.90;;;;;;5171906;28;20079;-75
2022/06/29 08:54:52;;;;;;;13.85;12.10;;;21.30;99.90;;;;;;5186496;28;20296;-75
2022/06/29 08:57:25;;;;;;;12.48;10.52;;;21.20;99.90;;;;;;5187444;28;20401;-74
2022/06/29 08:59:58;;;;;;;13.88;12.10;;;21.20;99.90;;;;;;5156190;28;20263;-74
2022/06/29 09:02:34;;;;;;;14.13;11.35;;;21.20;99.90;;;;;;5189045;28;20053;-75
2022/06/29 09:05:07;;;;;;;14.90;11.50;;;21.30;99.90;;;;;;5190208;28;20064;-74
2022/06/29 09:07:40;;;;;;;14.43;10.13;;;21.40;99.90;;;;;;5169161;28;20053;-75
2022/06/29 09:10:18;;;;;;;12.23;10.63;;;21.60;99.90;;;;;;5184391;28;20045;-74
2022/06/29 09:12:52;;;;;;;14.63;11.02;;;21.80;99.90;;;;;;5184801;28;20543;-76
2022/06/29 09:15:41;;;;;;;16.88;13.13;;;21.90;99.90;;;;;;5171547;28;20045;-76
2022/06/29 09:18:27;;;;;;;15.02;10.68;;;21.90;99.90;;;;;;5187902;28;20056;-75
2022/06/29 09:21:03;;;;;;;12.30;10.60;;;21.90;99.90;;;;;;5171566;28;20056;-75
2022/06/29 09:23:35;;;;;;;19.55;11.68;;;22.00;99.90;;;;;;5187619;28;20042;-75
2022/06/29 09:26:08;;;;;;;14.53;11.70;;;22.10;99.90;;;;;;5170048;28;20046;-75
2022/06/29 09:28:40;;;;;;;11.73;10.52;;;22.10;99.90;;;;;;5186785;28;20041;-76
2022/06/29 09:31:13;;;;;;;13.77;11.25;;;22.10;99.90;;;;;;5175899;28;20133;-75
2022/06/29 09:33:46;;;;;;;13.00;10.52;;;22.20;99.90;;;;;;5159521;28;20045;-75
2022/06/29 09:36:19;;;;;;;16.98;11.38;;;22.20;99.90;;;;;;5171645;28;20922;-76
2022/06/29 09:38:52;;;;;;;14.30;11.02;;;22.20;99.90;;;;;;5173295;28;20068;-75
2022/06/29 09:41:27;;;;;;;16.73;10.87;;;22.20;99.90;;;;;;5176612;28;20050;-75
2022/06/29 09:44:00;;;;;;;12.07;10.80;;;22.30;99.90;;;;;;5197499;28;20575;-74
2022/06/29 09:46:35;;;;;;;12.20;8.98;;;22.40;99.90;;;;;;5178154;28;20412;-73
2022/06/29 09:49:07;;;;;;;12.05;9.45;;;22.60;99.90;;;;;;5192073;28;20389;-75
2022/06/29 09:51:40;;;;;;;11.85;10.10;;;22.60;99.90;;;;;;5185438;28;20065;-75
2022/06/29 09:54:13;;;;;;;12.00;9.87;;;22.90;99.90;;;;;;5186638;28;20049;-75
2022/06/29 09:56:48;;;;;;;11.27;9.00;;;23.10;99.90;;;;;;5188194;28;20049;-75
2022/06/29 10:02:37;;;;;;;;;;;23.20;99.90;;;;;;5186317;28;20056;-74
2022/06/29 10:05:12;;;;;;;10.00;8.98;;;23.10;99.90;;;;;;5186476;28;20916;-74
2022/06/29 10:07:55;;;;;;;11.70;8.52;;;23.20;99.90;;;;;;5185546;28;20409;-75
2022/06/29 10:10:28;;;;;;;11.32;9.50;;;23.10;99.40;;;;;;5168948;28;20053;-74
2022/06/29 10:13:42;;;;;;;11.05;9.70;;;23.10;99.50;;;;;;5188179;28;20067;-75
2022/06/29 10:16:38;;;;;;;10.75;9.23;;;23.20;99.80;;;;;;5188410;28;20037;-74
2022/06/29 10:19:50;;;;;;;11.00;9.38;;;23.20;99.90;;;;;;5187842;28;20041;-75
2022/06/29 10:22:22;;;;;;;12.50;10.32;;;23.30;99.90;;;;;;5167000;28;22011;-74
2022/06/29 10:25:10;;;;;;;10.47;8.93;;;23.40;99.60;;;;;;5170338;28;20040;-75
2022/06/29 10:28:19;;;;;;;10.98;8.63;;;23.40;99.90;;;;;;5140321;28;20477;-75
2022/06/29 10:30:54;;;;;;;9.82;8.82;;;23.50;99.90;;;;;;5170579;28;20046;-74
2022/06/29 10:33:29;;;;;;;10.40;8.65;;;23.50;97.90;;;;;;5187688;28;20045;-75
2022/06/29 10:36:08;;;;;;;9.43;8.40;;;23.30;96.90;;;;;;5187740;28;20049;-74
2022/06/29 10:38:58;;;;;;;12.00;8.27;;;23.20;98.10;;;;;;5183999;28;20057;-74
2022/06/29 10:44:59;;;;;;;10.82;7.60;;;23.50;97.70;;;;;;5177651;28;20049;-74
2022/06/29 10:47:32;;;;;;;11.45;7.72;;;23.70;98.00;;;;;;5185573;28;20050;-73
2022/06/29 10:50:15;;;;;;;6.82;5.97;;;23.80;95.40;;;;;;5169416;28;20053;-75
2022/06/29 10:52:49;;;;;;;7.53;6.05;;;23.60;97.40;;;;;;5186041;28;20064;-73
2022/06/29 10:55:24;;;;;;;10.90;6.53;;;23.60;94.50;;;;;;5184984;28;20052;-74
2022/06/29 10:57:58;;;;;;;9.27;6.25;;;23.60;93.90;;;;;;5190601;28;20072;-74
2022/06/29 11:00:40;;;;;;;;;;;23.80;94.50;;;;;;5188185;28;20046;-74
2022/06/29 11:03:19;;;;;;;10.82;6.88;;;23.90;91.40;;;;;;5181862;28;19925;-75
2022/06/29 11:12:01;;;;;;;7.70;6.13;;;24.20;92.00;;;;;;5189972;28;20050;-73
2022/06/29 11:17:40;;;;;;;10.20;7.15;;;24.00;90.40;;;;;;5146926;28;20509;-74
2022/06/29 11:20:20;;;;;;;8.43;6.13;;;24.00;90.70;;;;;;5187643;28;20052;-75
2022/06/29 11:22:53;;;;;;;6.40;5.80;;;24.00;91.20;;;;;;5179163;28;20037;-74
2022/06/29 11:25:36;;;;;;;7.50;6.53;;;24.20;91.40;;;;;;5178589;28;20845;-74
2022/06/29 11:28:17;;;;;;;7.45;6.72;;;24.40;91.80;;;;;;5176848;28;20045;-73
2022/06/29 11:31:08;;;;;;;7.28;6.50;;;24.90;90.80;;;;;;5165674;28;20049;-73
2022/06/29 11:33:47;;;;;;;11.90;6.30;;;25.50;90.30;;;;;;5180997;28;20049;-72
2022/06/29 11:36:29;;;;;;;6.65;5.22;;;25.90;88.10;;;;;;5184945;28;20304;-73
2022/06/29 11:39:06;;;;;;;7.30;4.95;;;26.00;84.80;;;;;;5154365;28;20076;-73
2022/06/29 11:44:45;;;;;;;9.75;5.32;;;26.40;77.40;;;;;;5179445;28;20082;-74
2022/06/29 11:47:23;;;;;;;9.00;5.60;;;26.60;80.50;;;;;;5170417;28;20050;-74
2022/06/29 11:49:58;;;;;;;7.43;4.82;;;26.60;76.70;;;;;;5135875;28;20049;-73
2022/06/29 11:52:34;;;;;;;8.23;5.80;;;26.60;79.10;;;;;;5176886;28;20053;-75
2022/06/29 11:55:10;;;;;;;6.10;5.50;;;26.50;76.10;;;;;;5162503;28;20071;-74
2022/06/29 11:57:58;;;;;;;10.60;6.03;;;26.40;78.20;;;;;;5167108;28;20422;-74
2022/06/29 12:00:39;;;;;;;7.47;5.78;;;26.40;77.40;;;;;;5181393;28;20072;-74
2022/06/29 12:03:15;;;;;;;7.72;5.60;;;26.10;78.20;;;;;;5183906;28;20043;-74
2022/06/29 12:05:58;;;;;;;7.60;4.88;;;26.20;79.10;;;;;;5164064;28;21212;-73
2022/06/29 12:08:34;;;;;;;6.78;5.60;;;26.30;80.00;;;;;;5147052;28;20340;-75
2022/06/29 12:11:12;;;;;;;9.27;6.00;;;26.20;79.60;;;;;;5129299;28;20057;-74
2022/06/29 12:13:49;;;;;;;6.97;5.55;;;25.90;78.90;;;;;;5162261;28;20050;-75
2022/06/29 12:16:26;;;;;;;8.93;5.72;;;25.70;81.30;;;;;;5170499;28;20076;-73
2022/06/29 12:19:02;;;;;;;11.40;5.90;;;25.60;81.20;;;;;;5152490;28;20539;-74
2022/06/29 12:21:37;;;;;;;6.28;5.53;;;25.40;81.20;;;;;;5152105;28;20067;-74
2022/06/29 12:24:11;;;;;;;8.57;6.13;;;25.10;82.10;;;;;;5166021;28;20049;-74
2022/06/29 12:26:47;;;;;;;9.30;5.15;;;25.00;83.70;;;;;;5131589;28;21819;-74
2022/06/29 12:29:21;;;;;;;9.98;6.05;;;24.80;84.70;;;;;;5146653;28;20092;-74
2022/06/29 12:31:59;;;;;;;8.10;6.00;;;24.70;82.80;;;;;;5170434;28;20048;-76
2022/06/29 12:34:33;;;;;;;;;;;24.50;85.70;;;;;;5182708;28;20050;-75
2022/06/29 12:37:08;;;;;;;8.63;6.20;;;24.40;83.60;;;;;;5179520;28;19947;-74
2022/06/29 12:39:42;;;;;;;9.57;6.32;;;24.30;86.40;;;;;;5157678;28;20050;-75
2022/06/29 12:42:19;;;;;;;7.15;5.35;;;24.40;86.60;;;;;;5163679;28;20061;-75
2022/06/29 12:44:53;;;;;;;6.43;5.75;;;24.40;86.40;;;;;;5157495;28;20068;-75
2022/06/29 12:47:28;;;;;;;7.10;5.10;;;24.40;84.00;;;;;;5157981;28;20049;-75
2022/06/29 12:50:05;;;;;;;6.22;5.40;;;24.30;82.90;;;;;;5143331;28;20045;-75
2022/06/29 12:52:46;;;;;;;10.63;5.80;;;24.40;85.00;;;;;;5166412;28;20049;-75
2022/06/29 12:55:23;;;;;;;7.53;5.57;;;24.40;85.00;;;;;;5173548;28;20053;-75
2022/06/29 12:58:00;;;;;;;8.15;5.30;;;24.30;83.70;;;;;;5154322;28;20061;-75
2022/06/29 13:00:36;;;;;;;7.40;5.40;;;24.40;84.60;;;;;;5166885;28;20045;-75
2022/06/29 13:03:13;;;;;;;8.38;5.90;;;24.40;85.30;;;;;;5160307;28;20054;-74
2022/06/29 13:05:49;;;;;;;6.68;5.03;;;24.50;84.30;;;;;;5177453;28;20539;-75
2022/06/29 13:08:25;;;;;;;6.00;5.00;;;24.60;81.80;;;;;;5176170;28;21008;-75
2022/06/29 13:11:01;;;;;;;8.00;5.00;;;24.80;83.60;;;;;;5171341;28;20045;-75
2022/06/29 13:13:39;;;;;;;7.47;4.97;;;25.00;81.60;;;;;;5164448;28;20056;-75
2022/06/29 13:16:15;;;;;;;8.73;5.22;;;25.40;82.40;;;;;;5176435;28;20045;-75
2022/06/29 13:18:51;;;;;;;8.95;5.68;;;25.70;79.10;;;;;;5153665;28;20088;-75
2022/06/29 13:21:28;;;;;;;10.63;5.38;;;25.70;77.30;;;;;;5158652;28;20048;-75
2022/06/29 13:24:04;;;;;;;10.45;5.78;;;25.70;77.60;;;;;;5184636;28;20060;-76
2022/06/29 13:26:39;;;;;;;8.68;5.20;;;26.10;77.60;;;;;;5163069;28;20049;-74
2022/06/29 13:29:14;;;;;;;8.80;5.47;;;26.70;77.00;;;;;;5176096;28;20052;-75
2022/06/29 13:31:49;;;;;;;9.38;5.47;;;27.40;72.10;;;;;;5166510;28;20521;-75
2022/06/29 13:34:27;;;;;;;6.38;5.60;;;27.30;72.50;;;;;;5160675;28;20057;-76
2022/06/29 13:37:03;;;;;;;8.23;5.30;;;27.20;72.50;;;;;;5169034;28;20048;-75
2022/06/29 13:39:37;;;;;;;7.55;4.93;;;27.00;72.70;;;;;;5176831;28;20097;-75